createdAt,value
2022-10-23T00:05:21.871Z,16.19
2022-10-23T00:10:53.827Z,16.06
2022-10-23T00:16:25.184Z,16.04
2022-10-23T00:21:57.014Z,15.98
2022-10-23T00:27:28.646Z,15.85
2022-10-23T00:33:07.035Z,15.55
2022-10-23T00:38:38.475Z,15.44
2022-10-23T00:44:10.454Z,15.34
2022-10-23T00:49:42.840Z,15.25
2022-10-23T00:55:13.820Z,15.18
2022-10-23T01:00:45.469Z,15.27
2022-10-23T01:06:27.526Z,15.4
2022-10-23T01:11:48.970Z,15.48
2022-10-23T01:17:21.698Z,15.48
2022-10-23T01:22:53.110Z,15.44
2022-10-23T01:28:24.746Z,15.47
2022-10-23T01:34:02.906Z,15.52
2022-10-23T01:39:34.622Z,15.51
2022-10-23T01:45:06.412Z,15.4
2022-10-23T01:50:38.006Z,15.45
2022-10-23T01:56:09.859Z,15.5
2022-10-23T02:01:41.800Z,15.46
2022-10-23T02:07:13.157Z,15.39
2022-10-23T02:12:45.022Z,15.37
2022-10-23T02:18:16.881Z,15.5
2022-10-23T02:23:49.578Z,15.39
2022-10-23T02:29:20.193Z,15.54
2022-10-23T02:34:56.113Z,15.28
2022-10-23T02:40:27.969Z,15.26
2022-10-23T02:45:59.598Z,15.32
2022-10-23T02:51:31.521Z,15.32
2022-10-23T02:57:03.065Z,15.26
2022-10-23T03:02:34.786Z,15.33
2022-10-23T03:08:06.729Z,15.35
2022-10-23T03:13:38.286Z,15.26
2022-10-23T03:24:41.662Z,15.21
2022-10-23T03:30:13.375Z,15.06
2022-10-23T03:35:49.811Z,15.04
2022-10-23T03:41:21.190Z,15.05
2022-10-23T03:46:52.920Z,15.22
2022-10-23T03:57:56.514Z,15.25
2022-10-23T04:03:28.092Z,15.25
2022-10-23T04:08:59.958Z,15.28
2022-10-23T04:14:31.674Z,15.23
2022-10-23T04:20:03.414Z,15.15
2022-10-23T04:25:35.181Z,15.08
2022-10-23T04:31:06.724Z,15.18
2022-10-23T04:36:42.794Z,15.03
2022-10-23T04:42:14.793Z,15.04
2022-10-23T04:47:46.424Z,14.95
2022-10-23T04:53:18.016Z,14.95
2022-10-23T04:58:49.760Z,14.93
2022-10-23T05:04:21.850Z,14.9
2022-10-23T05:09:53.194Z,14.97
2022-10-23T05:15:24.881Z,14.95
2022-10-23T05:20:56.596Z,15.1
2022-10-23T05:26:28.350Z,15.11
2022-10-23T05:32:00.303Z,14.99
2022-10-23T05:37:36.319Z,14.92
2022-10-23T05:43:08.058Z,15.07
2022-10-23T05:48:39.773Z,14.93
2022-10-23T05:54:11.361Z,15.0
2022-10-23T05:59:43.074Z,14.98
2022-10-23T06:05:14.787Z,14.96
2022-10-23T06:10:46.726Z,14.9
2022-10-23T06:16:18.386Z,14.87
2022-10-23T06:21:49.982Z,14.98
2022-10-23T06:27:21.882Z,15.05
2022-10-23T06:32:53.441Z,14.9
2022-10-23T06:38:29.638Z,14.94
2022-10-23T06:44:01.417Z,14.96
2022-10-23T06:49:33.141Z,15.02
2022-10-23T06:55:04.865Z,15.14
2022-10-23T07:00:36.598Z,15.06
2022-10-23T07:06:08.290Z,15.17
2022-10-23T07:11:39.869Z,15.26
2022-10-23T07:17:11.602Z,15.3
2022-10-23T07:22:44.354Z,15.32
2022-10-23T07:28:15.067Z,15.38
2022-10-23T07:33:46.773Z,15.52
2022-10-23T07:39:22.877Z,15.76
2022-10-23T07:44:54.749Z,16.02
2022-10-23T07:50:26.342Z,15.9
2022-10-23T07:55:58.070Z,15.99
2022-10-23T08:01:29.855Z,16.62
2022-10-23T08:07:01.654Z,16.39
2022-10-23T08:12:33.223Z,16.84
2022-10-23T08:18:05.287Z,16.98
2022-10-23T08:23:37.107Z,17.36
2022-10-23T08:29:08.554Z,17.51
2022-10-23T08:34:40.381Z,17.81
2022-10-23T08:40:16.206Z,17.71
2022-10-23T08:45:47.984Z,17.68
2022-10-23T08:51:19.690Z,17.76
2022-10-23T08:56:51.451Z,17.81
2022-10-23T09:02:23.242Z,17.82
2022-10-23T09:07:54.866Z,17.75
2022-10-23T09:13:26.602Z,17.93
2022-10-23T09:18:58.526Z,18.11
2022-10-23T09:24:30.120Z,18.08
2022-10-23T09:30:02.199Z,18.88
2022-10-23T09:35:33.828Z,19.2
2022-10-23T09:41:09.888Z,19.26
2022-10-23T09:46:41.654Z,19.23
2022-10-23T09:52:15.261Z,19.63
2022-10-23T09:57:47.152Z,19.72
2022-10-23T10:03:18.754Z,19.89
2022-10-23T10:08:50.314Z,20.02
2022-10-23T10:14:22.075Z,20.42
2022-10-23T10:19:54.014Z,20.54
2022-10-23T10:25:25.702Z,20.63
2022-10-23T10:30:57.225Z,20.72
2022-10-23T10:36:29.123Z,21.05
2022-10-23T10:42:07.086Z,21.35
2022-10-23T10:47:38.797Z,21.09
2022-10-23T10:53:10.614Z,21.35
2022-10-23T10:58:42.380Z,21.17
2022-10-23T11:04:14.096Z,21.62
2022-10-23T11:09:45.698Z,21.42
2022-10-23T11:15:17.503Z,21.5
2022-10-23T11:20:49.197Z,21.56
2022-10-23T11:26:21.027Z,21.59
2022-10-23T11:31:52.729Z,21.62
2022-10-23T11:37:24.315Z,21.67
2022-10-23T11:43:00.445Z,21.49
2022-10-23T11:48:32.184Z,21.26
2022-10-23T11:54:03.910Z,21.43
2022-10-23T11:59:35.654Z,21.63
2022-10-23T12:05:07.386Z,21.53
2022-10-23T12:10:39.227Z,21.56
2022-10-23T12:16:10.931Z,21.54
2022-10-23T12:21:42.679Z,21.66
2022-10-23T12:27:14.244Z,21.95
2022-10-23T12:32:46.059Z,22.09
2022-10-23T12:38:17.714Z,22.05
2022-10-23T12:43:53.811Z,22.5
2022-10-23T12:49:25.543Z,22.42
2022-10-23T12:54:57.843Z,22.53
2022-10-23T13:00:29.427Z,22.76
2022-10-23T13:06:00.945Z,23.05
2022-10-23T13:11:32.473Z,22.94
2022-10-23T13:17:04.194Z,23.36
2022-10-23T13:22:36.054Z,23.47
2022-10-23T13:28:07.667Z,23.47
2022-10-23T13:33:39.551Z,23.42
2022-10-23T13:39:11.099Z,23.39
2022-10-23T13:44:49.193Z,23.37
2022-10-23T13:50:20.897Z,23.37
2022-10-23T13:55:54.849Z,23.27
2022-10-23T14:01:24.683Z,23.1
2022-10-23T14:06:56.502Z,22.82
2022-10-23T14:12:28.332Z,22.65
2022-10-23T14:18:00.830Z,22.73
2022-10-23T14:23:31.869Z,22.7
2022-10-23T14:29:05.125Z,22.53
2022-10-23T14:34:35.269Z,22.4
2022-10-23T14:40:07.082Z,22.24
2022-10-23T14:45:43.303Z,22.2
2022-10-23T14:51:15.394Z,22.18
2022-10-23T14:56:46.848Z,22.12
2022-10-23T15:02:18.558Z,22.06
2022-10-23T15:07:50.215Z,22.08
2022-10-23T15:13:22.145Z,21.98
2022-10-23T15:18:53.911Z,21.87
2022-10-23T15:24:25.744Z,21.92
2022-10-23T15:29:57.391Z,21.91
2022-10-23T15:41:00.723Z,21.93
2022-10-23T15:46:39.102Z,21.58
2022-10-23T15:57:42.710Z,21.99
2022-10-23T16:03:15.082Z,21.83
2022-10-23T16:08:46.789Z,21.8
2022-10-23T16:14:19.346Z,21.56
2022-10-23T16:19:51.079Z,21.4
2022-10-23T16:25:22.832Z,21.39
2022-10-23T16:30:54.547Z,21.24
2022-10-23T16:36:26.452Z,21.19
2022-10-23T16:41:58.246Z,21.02
2022-10-23T16:47:34.393Z,21.09
2022-10-23T16:53:06.281Z,21.18
2022-10-23T16:58:37.854Z,21.2
2022-10-23T17:04:09.574Z,21.3
2022-10-23T17:09:41.297Z,21.25
2022-10-23T17:15:13.178Z,21.52
2022-10-23T17:20:44.935Z,21.43
2022-10-23T17:26:16.464Z,21.5
2022-10-23T17:31:48.337Z,21.44
2022-10-23T17:37:20.135Z,21.29
2022-10-23T17:42:51.849Z,21.25
2022-10-23T17:48:30.009Z,21.26
2022-10-23T17:54:01.533Z,21.11
2022-10-23T17:59:33.353Z,21.14
2022-10-23T18:05:04.968Z,21.25
2022-10-23T18:10:36.836Z,21.36
2022-10-23T18:16:08.591Z,21.34
2022-10-23T18:21:40.199Z,21.37
2022-10-23T18:27:12.116Z,21.03
2022-10-23T18:32:43.724Z,20.53
2022-10-23T18:38:15.383Z,20.33
2022-10-23T18:43:47.076Z,20.63
2022-10-23T18:49:23.220Z,21.01
2022-10-23T18:54:54.915Z,21.21
2022-10-23T19:00:26.863Z,21.1
2022-10-23T19:05:58.570Z,20.98
2022-10-23T19:11:30.126Z,20.88
2022-10-23T19:17:01.866Z,20.76
2022-10-23T19:22:33.805Z,20.73
2022-10-23T19:28:05.325Z,20.6
2022-10-23T19:33:37.237Z,20.48
2022-10-23T19:39:08.841Z,20.39
2022-10-23T19:44:40.755Z,20.43
2022-10-23T19:50:18.917Z,20.56
2022-10-23T19:55:50.426Z,20.62
2022-10-23T20:01:22.334Z,20.53
2022-10-23T20:06:54.248Z,20.47
2022-10-23T20:12:25.601Z,20.54
2022-10-23T20:17:57.304Z,20.37
2022-10-23T20:23:29.293Z,20.36
2022-10-23T20:29:00.901Z,20.49
2022-10-23T20:34:32.706Z,20.34
2022-10-23T20:40:04.250Z,20.47
2022-10-23T20:45:35.987Z,20.46
2022-10-23T20:51:12.195Z,20.19
2022-10-23T20:56:43.921Z,20.39
2022-10-23T21:02:15.598Z,20.52
2022-10-23T21:07:47.253Z,20.51
2022-10-23T21:13:19.997Z,20.59
2022-10-23T21:18:51.458Z,20.58
2022-10-23T21:24:23.213Z,20.53
2022-10-23T21:29:54.941Z,20.54
2022-10-23T21:35:27.881Z,20.64
2022-10-23T21:40:58.550Z,20.62
2022-10-23T21:46:30.117Z,20.61
2022-10-23T21:52:06.215Z,20.65
2022-10-23T21:57:38.002Z,20.72
2022-10-23T22:03:09.694Z,20.67
2022-10-23T22:08:41.993Z,20.74
2022-10-23T22:14:13.189Z,20.73
2022-10-23T22:19:44.878Z,20.68
2022-10-23T22:25:16.785Z,20.72
2022-10-23T22:30:48.382Z,20.73
2022-10-23T22:36:20.247Z,20.7
2022-10-23T22:41:51.798Z,20.5
2022-10-23T22:47:23.682Z,20.54
2022-10-23T22:52:59.698Z,20.59
2022-10-23T22:58:31.472Z,20.48
2022-10-23T23:04:08.593Z,20.4
2022-10-23T23:09:34.931Z,20.31
2022-10-23T23:15:06.854Z,20.24
2022-10-23T23:20:38.238Z,20.18
2022-10-23T23:26:09.962Z,20.17
2022-10-23T23:31:41.887Z,20.22
2022-10-23T23:37:13.401Z,20.14
2022-10-23T23:42:45.509Z,20.08
2022-10-23T23:48:16.935Z,20.15
2022-10-23T23:53:52.998Z,20.11
2022-10-23T23:59:24.842Z,20.04
